Time;durP1;ratioP1;P1;durP2;ratioP2;P2;SDS_P1;SDS_P2;PMS_P1;PMS_P2;Temp;Humidity;BMP_temperature;BMP_pressure;BME280_temperature;BME280_humidity;BME280_pressure;Samples;Min_cycle;Max_cycle;Signal;HPM_P1;HPM_P2
2022/04/23 00:00:56;;;;;;;15.60;14.30;;;;;;;12.66;65.89;97284.34;5016692;28;102775;-66
2022/04/23 00:03:24;;;;;;;14.73;13.52;;;;;;;12.90;65.05;97286.31;4997735;28;103758;-66
2022/04/23 00:05:53;;;;;;;14.70;13.60;;;;;;;12.89;65.12;97289.94;5012442;28;103494;-62
2022/04/23 00:08:21;;;;;;;14.02;12.98;;;;;;;12.97;64.67;97292.63;5001952;28;104177;-66
2022/04/23 00:10:49;;;;;;;16.35;14.93;;;;;;;12.76;64.97;97293.88;5017710;28;102673;-62
2022/04/23 00:13:17;;;;;;;15.68;14.48;;;;;;;12.50;66.36;97294.84;5015173;28;102912;-67
2022/04/23 00:15:47;;;;;;;16.97;15.57;;;;;;;12.06;67.99;97294.06;4999784;28;103824;-62
2022/04/23 00:18:15;;;;;;;17.95;16.35;;;;;;;11.84;69.05;97292.75;5011097;28;103225;-66
2022/04/23 00:20:46;;;;;;;17.52;16.10;;;;;;;11.53;70.91;97288.78;5010089;28;102691;-66
2022/04/23 00:23:15;;;;;;;16.83;15.33;;;;;;;11.60;70.36;97287.19;5008452;28;104234;-66
2022/04/23 00:25:45;;;;;;;17.13;15.70;;;;;;;11.56;70.79;97288.47;5011143;28;104036;-66
2022/04/23 00:28:17;;;;;;;17.45;16.05;;;;;;;11.50;70.77;97286.44;5008411;28;103262;-62
2022/04/23 00:30:48;;;;;;;17.57;16.07;;;;;;;11.42;71.72;97291.63;5008096;28;102663;-62
2022/04/23 00:33:16;;;;;;;16.60;15.30;;;;;;;11.46;71.33;97292.97;4997203;28;104618;-62
2022/04/23 00:35:45;;;;;;;16.73;15.32;;;;;;;11.31;72.05;97299.78;5005776;28;104243;-66
2022/04/23 00:38:13;;;;;;;17.63;16.00;;;;;;;11.14;72.98;97303.22;5002046;28;103231;-66
2022/04/23 00:40:41;;;;;;;17.35;15.95;;;;;;;11.19;73.32;97303.59;5010658;28;102796;-66
2022/04/23 00:43:12;;;;;;;17.70;16.20;;;;;;;10.91;74.60;97300.97;5011673;28;102822;-66
2022/04/23 00:45:41;;;;;;;17.42;15.93;;;;;;;11.14;73.60;97297.94;5009307;28;103524;-66
2022/04/23 00:48:10;;;;;;;16.05;14.75;;;;;;;11.23;73.88;97297.06;5011921;28;103276;-66
2022/04/23 00:50:38;;;;;;;17.15;15.85;;;;;;;11.03;74.38;97294.50;5007883;28;103016;-62
2022/04/23 00:53:06;;;;;;;17.20;15.77;;;;;;;10.83;74.73;97300.03;4988682;28;102742;-62
2022/04/23 00:55:34;;;;;;;17.20;15.80;;;;;;;10.86;74.82;97305.84;5011297;28;103716;-62
2022/04/23 00:58:03;;;;;;;15.48;14.27;;;;;;;11.28;72.90;97310.66;5008163;28;103706;-62
2022/04/23 01:00:33;;;;;;;16.17;14.77;;;;;;;11.45;71.87;97296.63;5018844;28;102721;-62
2022/04/23 01:03:01;;;;;;;15.13;13.93;;;;;;;11.73;70.93;97306.19;5009272;28;104285;-66
2022/04/23 01:05:31;;;;;;;16.30;14.77;;;;;;;11.37;72.73;97309.75;5009186;28;103356;-66
2022/04/23 01:08:02;;;;;;;14.20;13.00;;;;;;;11.74;70.79;97297.25;5009834;28;103614;-62
2022/04/23 01:10:30;;;;;;;11.57;10.75;;;;;;;12.16;69.23;97300.94;5011641;28;102548;-61
2022/04/23 01:12:59;;;;;;;18.43;16.80;;;;;;;11.26;73.07;97302.03;5011920;28;102679;-62
2022/04/23 01:15:27;;;;;;;14.37;13.27;;;;;;;11.85;70.86;97294.38;4993752;28;104142;-66
2022/04/23 01:17:55;;;;;;;15.70;14.40;;;;;;;11.55;71.98;97284.16;4994549;28;104151;-66
2022/04/23 01:20:25;;;;;;;15.17;14.00;;;;;;;11.37;73.63;97283.31;5007976;28;102686;-66
2022/04/23 01:22:53;;;;;;;14.60;13.40;;;;;;;11.57;72.72;97290.13;5014814;28;103898;-66
2022/04/23 01:25:22;;;;;;;14.77;13.47;;;;;;;11.66;72.17;97289.22;5006234;28;103228;-66
2022/04/23 01:27:52;;;;;;;15.95;14.55;;;;;;;10.97;74.92;97278.41;5001829;28;103191;-62
2022/04/23 01:30:20;;;;;;;16.42;15.07;;;;;;;10.68;76.36;97275.91;5011057;28;102564;-62
2022/04/23 01:32:48;;;;;;;14.93;13.53;;;;;;;10.92;75.27;97276.19;5010309;27;103906;-61
2022/04/23 01:35:16;;;;;;;14.57;13.37;;;;;;;11.02;75.20;97278.81;4995852;28;103654;-62
2022/04/23 01:37:45;;;;;;;14.05;12.95;;;;;;;11.18;74.91;97288.72;5014213;28;103483;-66
2022/04/23 01:40:13;;;;;;;13.25;12.15;;;;;;;11.10;75.16;97286.81;5009399;28;103662;-66
2022/04/23 01:42:41;;;;;;;13.38;12.27;;;;;;;11.23;74.49;97275.91;5001035;28;102916;-66
2022/04/23 01:45:10;;;;;;;13.50;12.50;;;;;;;11.18;74.65;97283.44;5009782;28;103243;-63
2022/04/23 01:47:38;;;;;;;14.60;13.48;;;;;;;10.78;76.83;97279.31;4996397;28;103247;-66
2022/04/23 01:50:07;;;;;;;14.55;13.43;;;;;;;10.70;77.40;97279.22;5009854;28;102971;-66
2022/04/23 01:52:35;;;;;;;13.18;12.13;;;;;;;11.03;75.79;97280.47;5000076;28;103176;-62
2022/04/23 01:55:06;;;;;;;13.23;12.13;;;;;;;11.36;74.29;97286.94;5002313;28;103958;-62
2022/04/23 01:57:34;;;;;;;12.80;11.80;;;;;;;11.53;73.59;97284.31;4995282;28;103979;-66
2022/04/23 02:00:03;;;;;;;11.02;10.23;;;;;;;11.79;71.98;97287.03;5011580;28;102595;-66
2022/04/23 02:02:38;;;;;;;11.60;10.70;;;;;;;11.88;71.44;97286.13;5007216;28;102689;-62
2022/04/23 02:05:08;;;;;;;10.50;9.70;;;;;;;11.90;71.25;97299.25;5006796;28;103441;-62
2022/04/23 02:07:39;;;;;;;11.73;10.83;;;;;;;11.80;71.86;97296.66;5009337;28;103244;-66
2022/04/23 02:10:10;;;;;;;14.00;12.90;;;;;;;11.41;73.47;97297.91;4985642;28;102776;-66
2022/04/23 02:12:38;;;;;;;12.93;11.87;;;;;;;11.45;73.95;97296.63;5011495;28;103704;-66
2022/04/23 02:15:08;;;;;;;11.85;10.95;;;;;;;11.65;73.33;97291.03;5008975;28;104718;-62
2022/04/23 02:17:37;;;;;;;12.93;11.83;;;;;;;11.62;73.37;97295.81;5009417;28;103331;-62
2022/04/23 02:20:10;;;;;;;12.30;11.30;;;;;;;11.19;75.97;97295.69;5011821;28;103418;-66
2022/04/23 02:22:38;;;;;;;12.55;11.55;;;;;;;11.34;74.97;97294.19;5009273;28;102629;-66
2022/04/23 02:25:09;;;;;;;11.60;10.70;;;;;;;11.45;74.18;97291.34;5011399;28;103977;-66
2022/04/23 02:27:42;;;;;;;12.30;11.40;;;;;;;11.45;74.50;97289.50;5006794;28;103226;-66
2022/04/23 02:30:12;;;;;;;13.98;12.90;;;;;;;10.53;79.13;97277.34;5016651;28;103694;-66
2022/04/23 02:32:40;;;;;;;14.93;13.63;;;;;;;10.33;79.76;97292.41;5013088;28;104048;-66
2022/04/23 02:35:09;;;;;;;13.93;12.73;;;;;;;10.52;79.35;97291.53;5011099;28;103046;-66
2022/04/23 02:37:37;;;;;;;15.05;13.95;;;;;;;10.14;81.27;97286.34;5009335;28;103340;-66
2022/04/23 02:40:07;;;;;;;14.77;13.57;;;;;;;10.26;80.81;97279.94;4986899;28;102975;-66
2022/04/23 02:42:37;;;;;;;15.15;14.00;;;;;;;10.20;81.20;97285.78;5002950;28;102812;-65
2022/04/23 02:45:07;;;;;;;13.80;12.70;;;;;;;10.20;81.67;97291.06;4981855;28;104280;-62
2022/04/23 02:47:45;;;;;;;13.82;12.82;;;;;;;10.03;82.24;97289.13;4991738;28;104166;-62
2022/04/23 02:50:15;;;;;;;14.38;13.18;;;;;;;10.01;82.36;97285.78;5009637;28;102585;-62
2022/04/23 02:52:43;;;;;;;13.68;12.60;;;;;;;10.13;81.94;97295.25;5011040;28;103849;-62
2022/04/23 02:55:14;;;;;;;14.18;13.07;;;;;;;9.84;83.30;97290.81;5012177;28;104166;-62
2022/04/23 02:57:44;;;;;;;14.10;12.95;;;;;;;9.79;83.33;97293.03;5009785;28;103270;-62
2022/04/23 03:00:13;;;;;;;13.50;12.40;;;;;;;9.84;83.66;97285.53;4989000;28;103131;-66
2022/04/23 03:02:41;;;;;;;14.30;13.02;;;;;;;9.71;84.45;97286.81;4992800;28;103776;-65
2022/04/23 03:05:14;;;;;;;14.50;13.30;;;;;;;9.52;85.64;97297.31;5013931;28;103418;-63
2022/04/23 03:07:43;;;;;;;13.52;12.43;;;;;;;9.94;83.79;97289.97;5003075;28;103271;-65
2022/04/23 03:10:13;;;;;;;14.00;12.90;;;;;;;9.65;84.92;97301.38;5001762;28;102647;-62
2022/04/23 03:12:41;;;;;;;14.43;13.30;;;;;;;9.47;86.30;97296.91;5008022;28;104764;-62
2022/04/23 03:15:13;;;;;;;15.33;14.13;;;;;;;9.22;88.00;97290.34;5004667;28;104029;-65
2022/04/23 03:17:41;;;;;;;14.40;13.30;;;;;;;9.36;87.13;97295.22;5011794;28;103348;-66
2022/04/23 03:20:12;;;;;;;13.43;12.43;;;;;;;9.63;86.04;97300.66;4994002;28;103014;-65
2022/04/23 03:22:41;;;;;;;13.20;12.20;;;;;;;9.79;84.78;97302.75;4997538;28;103692;-66
2022/04/23 03:25:13;;;;;;;13.02;12.07;;;;;;;9.75;84.70;97304.84;5008497;28;103209;-61
2022/04/23 03:27:41;;;;;;;12.40;11.50;;;;;;;9.91;84.23;97299.81;5004873;28;103199;-62
2022/04/23 03:30:10;;;;;;;11.90;11.00;;;;;;;9.68;85.36;97305.53;5005568;28;102854;-62
2022/04/23 03:32:38;;;;;;;11.23;10.43;;;;;;;10.04;83.41;97291.63;5007942;28;103960;-62
2022/04/23 03:35:09;;;;;;;11.48;10.65;;;;;;;9.83;84.80;97298.84;5009776;28;103258;-65
2022/04/23 03:37:41;;;;;;;12.13;11.23;;;;;;;9.70;85.36;97303.59;5003474;28;103993;-61
2022/04/23 03:40:10;;;;;;;12.55;11.65;;;;;;;9.71;85.67;97300.00;5010077;28;102577;-62
2022/04/23 03:42:40;;;;;;;12.73;11.73;;;;;;;9.65;85.11;97301.38;4995440;28;104043;-62
2022/04/23 03:45:11;;;;;;;10.50;9.73;;;;;;;9.98;84.28;97292.19;5005055;28;103216;-65
2022/04/23 03:47:44;;;;;;;12.50;11.60;;;;;;;9.69;85.36;97296.63;5012490;28;103247;-62
2022/04/23 03:50:13;;;;;;;12.60;11.70;;;;;;;9.60;84.95;97302.75;4987180;28;104646;-62
2022/04/23 03:52:42;;;;;;;13.13;12.13;;;;;;;9.26;87.08;97295.22;4995386;28;102661;-62
2022/04/23 03:55:13;;;;;;;13.85;12.85;;;;;;;9.14;88.03;97300.75;5005757;28;104162;-62
2022/04/23 03:57:47;;;;;;;14.73;13.55;;;;;;;9.01;89.21;97294.91;4990531;28;103224;-62
2022/04/23 04:00:20;;;;;;;15.00;13.80;;;;;;;8.72;90.01;97295.66;4988768;28;102845;-62
2022/04/23 04:02:48;;;;;;;14.57;13.43;;;;;;;8.53;91.03;97300.81;5006571;28;104496;-65
2022/04/23 04:05:17;;;;;;;15.02;13.93;;;;;;;8.55;91.85;97293.63;5010669;28;104160;-61
2022/04/23 04:07:47;;;;;;;14.70;13.50;;;;;;;8.57;91.70;97290.84;5004934;28;103178;-62
2022/04/23 04:10:17;;;;;;;15.13;13.93;;;;;;;8.54;91.43;97302.47;5014371;28;102799;-62
2022/04/23 04:12:45;;;;;;;15.30;14.20;;;;;;;8.57;90.93;97298.75;5008597;28;103853;-65
2022/04/23 04:15:15;;;;;;;15.05;13.65;;;;;;;8.34;92.17;97302.50;5010335;28;103929;-65
2022/04/23 04:17:47;;;;;;;15.13;13.93;;;;;;;8.42;91.43;97303.53;5009427;28;103549;-66
2022/04/23 04:20:16;;;;;;;15.63;14.43;;;;;;;8.35;91.67;97305.03;5008726;28;102602;-65
2022/04/23 04:22:46;;;;;;;16.15;14.90;;;;;;;8.12;93.61;97300.84;5012720;28;103020;-64
2022/04/23 04:25:17;;;;;;;15.80;14.60;;;;;;;8.22;92.65;97301.75;4998438;28;103253;-64
2022/04/23 04:27:45;;;;;;;16.20;14.90;;;;;;;8.22;92.95;97291.22;5002088;28;103236;-64
2022/04/23 04:30:13;;;;;;;14.95;13.85;;;;;;;8.19;93.43;97296.75;5014685;28;102997;-64
2022/04/23 04:32:41;;;;;;;15.73;14.53;;;;;;;8.10;93.60;97300.13;5010749;28;102762;-64
2022/04/23 04:35:12;;;;;;;15.88;14.52;;;;;;;8.02;94.25;97292.06;5010803;28;103309;-64
2022/04/23 04:37:40;;;;;;;15.88;14.68;;;;;;;8.04;94.22;97293.59;5013648;28;103401;-64
2022/04/23 04:40:09;;;;;;;15.30;14.13;;;;;;;8.25;94.33;97301.50;5010104;28;102680;-61
2022/04/23 04:42:37;;;;;;;14.57;13.32;;;;;;;8.61;91.50;97295.75;4997210;28;104272;-62
2022/04/23 04:45:06;;;;;;;13.47;12.47;;;;;;;8.77;90.21;97297.03;4999806;28;104266;-64
2022/04/23 04:47:34;;;;;;;14.13;13.03;;;;;;;9.01;88.79;97300.16;5010211;28;103302;-64
2022/04/23 04:50:02;;;;;;;14.52;13.43;;;;;;;8.81;89.54;97306.34;5011919;28;102846;-61
2022/04/23 04:52:31;;;;;;;15.15;13.98;;;;;;;8.47;92.33;97309.25;5005893;28;103087;-64
2022/04/23 04:55:03;;;;;;;14.70;13.60;;;;;;;8.63;92.51;97309.59;4992080;28;104193;-64
2022/04/23 04:57:31;;;;;;;14.68;13.50;;;;;;;8.97;90.14;97301.41;5010156;28;103180;-64
2022/04/23 04:59:59;;;;;;;14.15;13.05;;;;;;;9.13;88.91;97306.97;4987682;28;102685;-64
2022/04/23 05:02:27;;;;;;;14.68;13.50;;;;;;;9.08;88.85;97311.81;4999860;28;102740;-64
2022/04/23 05:04:55;;;;;;;14.40;13.32;;;;;;;9.24;88.94;97312.97;5009015;28;103749;-64
2022/04/23 05:07:23;;;;;;;14.48;13.32;;;;;;;9.19;88.25;97312.53;5007981;28;103254;-63
2022/04/23 05:09:52;;;;;;;15.77;14.57;;;;;;;9.03;90.22;97309.59;5008468;28;102664;-61
2022/04/23 05:12:20;;;;;;;15.70;14.50;;;;;;;9.22;89.06;97314.91;5010352;28;102808;-62
2022/04/23 05:14:48;;;;;;;16.08;14.88;;;;;;;9.02;89.76;97317.63;4990017;28;104101;-64
2022/04/23 05:17:18;;;;;;;16.57;15.33;;;;;;;9.07;90.01;97313.63;5013765;28;103186;-61
2022/04/23 05:19:46;;;;;;;16.13;14.93;;;;;;;9.13;90.69;97317.50;4993487;28;103059;-64
2022/04/23 05:22:14;;;;;;;15.60;14.48;;;;;;;9.27;89.65;97322.41;4990953;28;102732;-61
2022/04/23 05:24:42;;;;;;;15.32;14.23;;;;;;;9.44;88.90;97321.75;4989912;28;104138;-64
2022/04/23 05:27:12;;;;;;;15.68;14.48;;;;;;;8.98;90.28;97330.22;5006839;28;104395;-64
2022/04/23 05:29:40;;;;;;;16.15;14.85;;;;;;;9.20;89.66;97339.72;5006642;28;102590;-64
2022/04/23 05:32:09;;;;;;;15.02;13.88;;;;;;;9.37;89.72;97330.34;4996834;28;103934;-61
2022/04/23 05:34:40;;;;;;;14.98;13.88;;;;;;;9.35;89.40;97329.66;5012152;28;103997;-61
2022/04/23 05:37:08;;;;;;;15.38;14.27;;;;;;;9.31;89.29;97335.19;5009584;28;103232;-61
2022/04/23 05:39:36;;;;;;;14.57;13.48;;;;;;;9.66;87.71;97329.38;5012446;28;102761;-62
2022/04/23 05:42:05;;;;;;;13.60;12.60;;;;;;;10.03;86.63;97334.81;5004597;28;103525;-64
2022/04/23 05:44:34;;;;;;;14.63;13.52;;;;;;;9.70;87.40;97338.69;4993002;28;104209;-61
2022/04/23 05:47:03;;;;;;;15.20;13.98;;;;;;;9.74;86.23;97336.63;4989490;28;104028;-61
2022/04/23 05:49:31;;;;;;;14.38;13.32;;;;;;;9.82;86.87;97339.41;5009514;28;102835;-61
2022/04/23 05:52:18;;;;;;;13.93;12.85;;;;;;;10.23;85.14;97346.22;5007646;28;104102;-61
2022/04/23 05:54:47;;;;;;;13.43;12.43;;;;;;;10.34;83.58;97343.41;5008757;28;103267;-62
2022/04/23 05:57:14;;;;;;;14.25;13.15;;;;;;;10.11;84.46;97345.50;5006420;28;103266;-63
2022/04/23 05:59:44;;;;;;;13.80;12.80;;;;;;;10.09;83.90;97346.59;5006997;28;103654;-63
2022/04/23 06:02:13;;;;;;;14.10;13.10;;;;;;;10.38;83.22;97352.72;5004635;28;103713;-62
2022/04/23 06:04:45;;;;;;;11.30;10.50;;;;;;;10.85;81.91;97359.69;4990203;28;104130;-62
2022/04/23 06:07:13;;;;;;;13.93;12.82;;;;;;;10.15;83.46;97361.91;5001856;28;103976;-64
2022/04/23 06:09:41;;;;;;;12.50;11.60;;;;;;;10.75;80.76;97360.69;5008302;28;103037;-64
2022/04/23 06:12:09;;;;;;;12.18;11.27;;;;;;;10.66;80.96;97359.75;5006816;28;104012;-64
2022/04/23 06:14:38;;;;;;;12.00;11.10;;;;;;;10.91;80.58;97367.03;5007073;28;103992;-64
2022/04/23 06:17:10;;;;;;;10.93;10.13;;;;;;;11.21;78.84;97360.63;5011257;28;103199;-64
2022/04/23 06:19:41;;;;;;;11.88;10.98;;;;;;;10.81;79.83;97365.38;5012141;28;102526;-62
2022/04/23 06:22:09;;;;;;;12.57;11.57;;;;;;;10.58;80.82;97358.78;5002995;28;103041;-64
2022/04/23 06:24:39;;;;;;;12.30;11.32;;;;;;;10.53;80.98;97364.47;5007987;28;104964;-64
2022/04/23 06:27:08;;;;;;;11.27;10.48;;;;;;;10.94;80.09;97376.47;4992144;28;103206;-64
2022/04/23 06:29:38;;;;;;;10.93;10.13;;;;;;;11.25;78.70;97369.09;5005950;28;103087;-64
2022/04/23 06:32:09;;;;;;;11.23;10.43;;;;;;;11.02;78.66;97372.13;5005387;28;103981;-64
2022/04/23 06:34:38;;;;;;;10.90;10.00;;;;;;;10.88;79.46;97375.25;5001754;28;104112;-65
2022/04/23 06:37:07;;;;;;;10.73;9.93;;;;;;;11.28;77.46;97371.47;5008407;28;103283;-64
2022/04/23 06:39:36;;;;;;;10.57;9.77;;;;;;;11.30;77.50;97370.34;5005821;28;102874;-64
2022/04/23 06:42:04;;;;;;;9.67;8.87;;;;;;;11.49;76.92;97372.88;5005132;28;103968;-62
2022/04/23 06:44:38;;;;;;;10.23;9.47;;;;;;;11.63;76.39;97375.00;5008218;28;103216;-64
2022/04/23 06:47:10;;;;;;;9.95;9.13;;;;;;;11.48;75.79;97373.03;5010925;28;103195;-61
2022/04/23 06:49:38;;;;;;;10.15;9.35;;;;;;;11.27;76.65;97373.25;5009622;28;102810;-61
2022/04/23 06:52:07;;;;;;;10.75;9.95;;;;;;;11.38;76.73;97366.94;5005624;28;103927;-61
2022/04/23 06:54:37;;;;;;;9.40;8.60;;;;;;;11.79;74.99;97377.00;5010887;28;103725;-62
2022/04/23 06:57:06;;;;;;;9.50;8.80;;;;;;;11.85;74.72;97376.41;4991615;28;104260;-62
2022/04/23 06:59:34;;;;;;;9.15;8.55;;;;;;;11.74;74.77;97375.78;5013667;28;102635;-61
2022/04/23 07:02:03;;;;;;;9.47;8.83;;;;;;;11.43;76.81;97377.91;5004280;28;102791;-62
2022/04/23 07:04:36;;;;;;;8.90;8.30;;;;;;;11.92;74.55;97366.06;4992828;28;104230;-62
2022/04/23 07:07:06;;;;;;;8.82;8.05;;;;;;;12.14;73.43;97363.78;4992329;28;104118;-64
2022/04/23 07:09:35;;;;;;;8.77;8.18;;;;;;;12.25;73.03;97364.53;5005739;28;102666;-64
2022/04/23 07:12:03;;;;;;;8.23;7.63;;;;;;;12.45;73.42;97361.56;5007756;28;102702;-64
2022/04/23 07:14:31;;;;;;;8.35;7.75;;;;;;;12.63;72.36;97364.19;5004419;28;102999;-64
2022/04/23 07:17:06;;;;;;;8.02;7.43;;;;;;;12.72;71.75;97371.16;5007554;28;103177;-61
2022/04/23 07:19:40;;;;;;;8.32;7.72;;;;;;;12.62;72.18;97373.09;5005705;28;103037;-62
2022/04/23 07:22:11;;;;;;;7.72;7.13;;;;;;;12.74;71.74;97375.31;5011183;28;102789;-61
2022/04/23 07:24:39;;;;;;;8.17;7.57;;;;;;;12.70;71.11;97373.97;4992158;28;103312;-61
2022/04/23 07:27:08;;;;;;;7.50;7.00;;;;;;;12.78;70.84;97373.19;4991851;28;104353;-61
2022/04/23 07:29:36;;;;;;;7.70;7.20;;;;;;;13.05;69.36;97375.66;5007641;28;102644;-61
2022/04/23 07:32:06;;;;;;;8.00;7.40;;;;;;;12.43;71.18;97375.94;5007502;27;102843;-62
2022/04/23 07:37:31;;;;;;;7.93;7.33;;;;;;;12.74;70.46;97374.50;5009256;28;104205;-65
2022/04/23 07:39:59;;;;;;;7.88;7.30;;;;;;;12.96;69.64;97376.63;5013470;28;102910;-64
2022/04/23 07:42:28;;;;;;;7.73;7.13;;;;;;;13.09;69.40;97366.44;5015823;28;103050;-65
2022/04/23 07:44:56;;;;;;;7.82;7.22;;;;;;;13.00;69.89;97382.44;5007137;28;103336;-64
2022/04/23 07:47:24;;;;;;;6.57;6.18;;;;;;;13.30;69.13;97377.47;5008676;28;103174;-65
2022/04/23 07:49:52;;;;;;;7.07;6.57;;;;;;;13.39;67.69;97372.22;5011433;28;102977;-65
2022/04/23 07:52:21;;;;;;;7.33;6.83;;;;;;;12.93;68.95;97370.81;5013124;28;103079;-65
2022/04/23 07:54:50;;;;;;;7.03;6.53;;;;;;;12.91;69.19;97367.50;5012038;28;103288;-65
2022/04/23 07:57:22;;;;;;;6.97;6.47;;;;;;;12.65;70.37;97365.69;4998424;28;103716;-65
2022/04/23 07:59:50;;;;;;;6.95;6.40;;;;;;;12.83;70.33;97367.44;5014902;28;102716;-61
2022/04/23 08:02:18;;;;;;;7.15;6.45;;;;;;;13.19;69.58;97367.16;4993873;28;104371;-61
2022/04/23 08:04:47;;;;;;;6.78;6.18;;;;;;;12.67;69.73;97366.34;5006351;28;103354;-62
2022/04/23 08:07:15;;;;;;;6.68;6.07;;;;;;;12.99;69.20;97370.19;5014443;28;103481;-65
2022/04/23 08:09:43;;;;;;;7.00;6.40;;;;;;;13.38;67.61;97363.44;5008342;28;102774;-65
2022/04/23 08:12:12;;;;;;;6.45;5.95;;;;;;;13.48;67.02;97365.94;5012830;28;103866;-65
2022/04/23 08:14:40;;;;;;;6.40;5.90;;;;;;;12.86;69.35;97365.28;5008114;28;103860;-65
2022/04/23 08:17:08;;;;;;;6.80;6.30;;;;;;;13.03;68.57;97356.44;5013566;28;103279;-65
2022/04/23 08:19:37;;;;;;;6.57;6.07;;;;;;;12.98;68.35;97369.34;5009243;28;102776;-62
2022/04/23 08:22:06;;;;;;;6.63;6.10;;;;;;;12.78;68.74;97373.19;5007594;28;102773;-62
2022/04/23 08:24:34;;;;;;;6.97;6.43;;;;;;;12.53;70.27;97374.00;5000983;28;104118;-65
2022/04/23 08:27:02;;;;;;;7.13;6.53;;;;;;;12.68;69.45;97368.00;4996679;28;103213;-65
2022/04/23 08:32:19;;;;;;;6.28;5.78;;;;;;;14.02;65.15;97365.41;4993840;28;103595;-62
2022/04/23 08:34:47;;;;;;;6.53;6.03;;;;;;;14.40;64.38;97361.28;5008708;28;103314;-61
2022/04/23 08:37:15;;;;;;;6.85;6.25;;;;;;;13.59;67.29;97368.28;5015101;28;103206;-61
2022/04/23 08:39:43;;;;;;;6.50;6.00;;;;;;;13.76;66.73;97370.00;5008732;28;102665;-62
2022/04/23 08:42:17;;;;;;;6.53;6.03;;;;;;;13.61;65.61;97363.69;5012990;27;104354;-61
2022/04/23 08:44:46;;;;;;;6.82;6.32;;;;;;;13.82;66.49;97374.66;5012795;28;103592;-61
2022/04/23 08:47:16;;;;;;;6.83;6.33;;;;;;;13.98;64.68;97364.06;5009942;28;103457;-61
2022/04/23 08:49:44;;;;;;;7.65;6.95;;;;;;;14.41;63.19;97349.69;4990506;28;102679;-65
2022/04/23 08:52:16;;;;;;;6.75;6.15;;;;;;;13.27;65.60;97371.69;5011218;28;103954;-69
2022/04/23 08:54:45;;;;;;;6.20;5.78;;;;;;;14.29;64.57;97359.78;5006310;28;103296;-65
2022/04/23 08:57:14;;;;;;;7.47;6.77;;;;;;;14.50;63.38;97354.84;5007814;28;103502;-65
2022/04/23 08:59:45;;;;;;;7.07;6.38;;;;;;;14.45;63.49;97354.50;4973912;28;102830;-65
2022/04/23 09:02:14;;;;;;;7.53;6.93;;;;;;;14.00;64.21;97361.25;5000420;28;103208;-64
2022/04/23 09:04:43;;;;;;;7.35;6.70;;;;;;;14.14;64.50;97353.47;4978662;28;104108;-65
2022/04/23 09:07:20;;;;;;;7.30;6.70;;;;;;;14.54;63.06;97351.84;4982612;28;104399;-65
2022/04/23 09:09:50;;;;;;;8.60;6.47;;;;;;;14.69;62.04;97347.50;4973907;28;102967;-65
2022/04/23 09:12:19;;;;;;;6.70;6.20;;;;;;;15.04;62.39;97355.06;4988585;28;102682;-62
2022/04/23 09:14:48;;;;;;;12.90;7.47;;;;;;;14.80;62.38;97355.09;4993425;28;103049;-62
2022/04/23 09:25:44;;;;;;;6.70;6.10;;;;;;;14.85;62.12;97347.47;4990862;28;103119;-62
2022/04/23 09:28:19;;;;;;;6.85;6.28;;;;;;;14.92;60.94;97348.44;4987939;28;103339;-60
2022/04/23 09:30:49;;;;;;;6.05;5.55;;;;;;;14.95;59.53;97348.09;4961098;28;102938;-61
2022/04/23 09:33:18;;;;;;;5.90;5.50;;;;;;;14.53;61.55;97348.34;4982291;28;104029;-61
2022/04/23 09:35:57;;;;;;;6.10;5.50;;;;;;;14.93;61.75;97350.13;4990992;28;104067;-61
2022/04/23 09:38:26;;;;;;;6.50;6.00;;;;;;;14.93;61.56;97355.44;4967501;28;103221;-61
2022/04/23 09:40:56;;;;;;;6.55;5.95;;;;;;;14.99;61.42;97352.91;4985687;28;103050;-65
2022/04/23 09:43:29;;;;;;;5.83;5.33;;;;;;;15.23;60.50;97352.00;4982205;28;104811;-64
2022/04/23 09:46:05;;;;;;;5.50;5.10;;;;;;;15.61;60.06;97355.69;4987355;28;103870;-61
2022/04/23 09:48:43;;;;;;;5.47;4.97;;;;;;;15.10;60.96;97360.50;4960027;28;103219;-61
2022/04/23 09:51:24;;;;;;;5.63;5.13;;;;;;;14.72;61.53;97352.47;4976786;28;103165;-60
2022/04/23 09:53:53;;;;;;;5.35;4.95;;;;;;;15.05;60.20;97359.38;4983964;28;102715;-61
2022/04/23 09:56:23;;;;;;;5.30;4.90;;;;;;;14.68;60.96;97357.28;4992202;28;103225;-61
2022/04/23 09:58:51;;;;;;;5.22;4.72;;;;;;;14.83;61.81;97357.44;4989780;28;103170;-61
2022/04/23 10:01:20;;;;;;;5.40;5.00;;;;;;;14.09;63.55;97361.09;4981989;28;102732;-61
2022/04/23 10:03:52;;;;;;;5.50;5.10;;;;;;;14.46;62.13;97353.50;4990256;28;103685;-61
2022/04/23 10:06:22;;;;;;;5.75;5.25;;;;;;;13.56;66.43;97355.38;4986313;28;103984;-61
2022/04/23 10:08:55;;;;;;;5.28;4.88;;;;;;;14.20;63.00;97347.50;4991365;28;103704;-62
2022/04/23 10:11:27;;;;;;;5.15;4.70;;;;;;;15.01;61.02;97350.09;4985422;28;102727;-62
2022/04/23 10:13:59;;;;;;;5.43;4.93;;;;;;;15.35;59.75;97344.47;4990129;28;102802;-62
2022/04/23 10:16:30;;;;;;;5.40;5.00;;;;;;;15.13;60.59;97339.91;4984629;28;104154;-63
2022/04/23 10:19:01;;;;;;;9.13;4.97;;;;;;;15.53;59.11;97348.56;4969237;28;104368;-62
2022/04/23 10:21:39;;;;;;;5.53;4.82;;;;;;;15.46;59.18;97336.13;4980137;28;102790;-65
2022/04/23 10:24:14;;;;;;;4.60;4.20;;;;;;;15.33;61.97;97344.63;4993238;28;102746;-61
2022/04/23 10:26:49;;;;;;;4.70;4.30;;;;;;;16.04;58.93;97343.63;4986157;28;104063;-62
2022/04/23 10:29:21;;;;;;;4.60;4.30;;;;;;;15.89;58.09;97337.38;4987380;28;103161;-65
2022/04/23 10:32:20;;;;;;;7.73;5.00;;;;;;;16.01;57.88;97347.47;4968628;28;102809;-65
2022/04/23 10:34:49;;;;;;;5.50;5.10;;;;;;;15.97;58.03;97345.34;4992988;28;103522;-65
2022/04/23 10:37:19;;;;;;;5.88;5.38;;;;;;;15.45;58.90;97342.44;4974994;28;103714;-65
2022/04/23 10:40:16;;;;;;;5.05;4.65;;;;;;;16.05;56.72;97342.63;4987558;28;103180;-62
2022/04/23 10:43:12;;;;;;;5.53;5.03;;;;;;;15.71;57.84;97331.53;4987737;28;102731;-60
2022/04/23 10:45:42;;;;;;;5.30;4.90;;;;;;;16.37;56.21;97339.69;4987909;28;102804;-65
2022/04/23 10:48:26;;;;;;;5.70;5.30;;;;;;;16.21;56.34;97327.34;4966774;28;104208;-65
2022/04/23 10:51:08;;;;;;;5.70;5.20;;;;;;;16.60;56.76;97327.19;4990680;28;103187;-65
2022/04/23 10:53:55;;;;;;;6.13;5.53;;;;;;;16.19;57.73;97317.88;4964600;28;103163;-65
2022/04/23 10:56:26;;;;;;;6.50;6.00;;;;;;;14.93;60.25;97328.84;4989199;28;104287;-65
2022/04/23 10:58:54;;;;;;;7.13;6.17;;;;;;;14.16;62.75;97327.59;4989103;28;104113;-65
2022/04/23 11:01:25;;;;;;;5.60;5.20;;;;;;;15.27;59.60;97321.38;4973834;28;104983;-66
2022/04/23 11:04:19;;;;;;;5.47;4.93;;;;;;;15.18;61.32;97322.44;4984388;28;102755;-65
2022/04/23 11:12:36;;;;;;;6.53;5.93;;;;;;;15.88;58.32;97311.78;4992829;28;104163;-65
2022/04/23 11:15:15;;;;;;;5.87;5.47;;;;;;;15.69;59.06;97314.91;4986516;28;102980;-65
2022/04/23 11:17:58;;;;;;;6.28;5.78;;;;;;;15.36;60.50;97325.66;4980362;28;104122;-62
2022/04/23 11:20:38;;;;;;;5.90;5.40;;;;;;;16.19;58.39;97317.88;4997340;28;103252;-62
2022/04/23 11:23:09;;;;;;;5.87;5.47;;;;;;;15.99;58.80;97317.53;4969696;28;104370;-62
2022/04/23 11:25:37;;;;;;;6.43;5.82;;;;;;;15.99;58.98;97314.03;4992050;28;102938;-62
2022/04/23 11:28:16;;;;;;;7.03;6.47;;;;;;;16.35;56.52;97315.06;4990568;28;102947;-62
2022/04/23 11:30:46;;;;;;;7.13;6.53;;;;;;;15.96;56.94;97314.38;4993688;28;103740;-61
2022/04/23 11:33:14;;;;;;;7.00;6.37;;;;;;;15.10;60.35;97319.81;4987338;28;103218;-64
2022/04/23 11:35:43;;;;;;;6.68;6.18;;;;;;;15.50;60.28;97319.66;4991880;28;102576;-61
2022/04/23 11:38:23;;;;;;;7.05;6.45;;;;;;;16.10;58.52;97316.25;4985951;28;102671;-61
2022/04/23 11:40:54;;;;;;;7.73;7.03;;;;;;;16.25;57.38;97306.50;4986963;28;104382;-61
2022/04/23 11:43:37;;;;;;;7.63;6.93;;;;;;;14.42;61.76;97316.81;4975277;28;103449;-62
2022/04/23 11:46:07;;;;;;;8.57;7.70;;;;;;;14.77;61.74;97307.59;4975642;28;102761;-62
2022/04/23 11:48:47;;;;;;;6.50;5.88;;;;;;;16.04;60.06;97314.31;4945933;28;104052;-62
2022/04/23 11:51:18;;;;;;;7.30;6.70;;;;;;;15.79;59.75;97296.84;4990995;28;103134;-63